sensor_id;sensor_type;location;lat;lon;timestamp;pressure;altitude;pressure_sealevel;temperature;humidity
71970;BME280;59838;52.152;5.436;2022-12-07T00:01:33;101987.09;;;3.03;100.00
71970;BME280;59838;52.152;5.436;2022-12-07T00:04:02;101971.56;;;3.05;100.00
71970;BME280;59838;52.152;5.436;2022-12-07T00:06:40;101968.28;;;3.03;100.00
71970;BME280;59838;52.152;5.436;2022-12-07T00:09:10;101980.41;;;3.01;100.00
71970;BME280;59838;52.152;5.436;2022-12-07T00:11:37;101978.97;;;2.97;100.00
71970;BME280;59838;52.152;5.436;2022-12-07T00:14:07;101984.13;;;2.97;100.00
71970;BME280;59838;52.152;5.436;2022-12-07T00:16:34;101972.31;;;2.94;100.00
71970;BME280;59838;52.152;5.436;2022-12-07T00:19:02;101968.41;;;2.88;100.00
71970;BME280;59838;52.152;5.436;2022-12-07T00:21:32;101964.50;;;2.83;100.00
71970;BME280;59838;52.152;5.436;2022-12-07T00:23:58;101970.78;;;2.79;100.00
71970;BME280;59838;52.152;5.436;2022-12-07T00:26:27;101972.59;;;2.77;100.00
71970;BME280;59838;52.152;5.436;2022-12-07T00:28:56;101963.91;;;2.66;100.00
71970;BME280;59838;52.152;5.436;2022-12-07T00:31:25;101967.69;;;2.61;100.00
71970;BME280;59838;52.152;5.436;2022-12-07T00:33:52;101959.69;;;2.52;100.00
71970;BME280;59838;52.152;5.436;2022-12-07T00:36:22;101956.50;;;2.49;100.00
71970;BME280;59838;52.152;5.436;2022-12-07T00:38:54;101955.69;;;2.48;100.00
71970;BME280;59838;52.152;5.436;2022-12-07T00:41:22;101955.47;;;2.51;100.00
71970;BME280;59838;52.152;5.436;2022-12-07T00:43:50;101937.31;;;2.54;100.00
71970;BME280;59838;52.152;5.436;2022-12-07T00:46:17;101944.19;;;2.54;100.00
71970;BME280;59838;52.152;5.436;2022-12-07T00:48:44;101938.13;;;2.55;100.00
71970;BME280;59838;52.152;5.436;2022-12-07T00:51:12;101952.63;;;2.56;100.00
71970;BME280;59838;52.152;5.436;2022-12-07T00:53:39;101952.72;;;2.54;100.00
71970;BME280;59838;52.152;5.436;2022-12-07T00:56:11;101949.41;;;2.52;100.00
71970;BME280;59838;52.152;5.436;2022-12-07T00:58:37;101958.16;;;2.50;100.00
71970;BME280;59838;52.152;5.436;2022-12-07T01:01:06;101942.16;;;2.46;100.00
71970;BME280;59838;52.152;5.436;2022-12-07T01:03:33;101947.28;;;2.46;100.00
71970;BME280;59838;52.152;5.436;2022-12-07T01:05:59;101946.75;;;2.41;100.00
71970;BME280;59838;52.152;5.436;2022-12-07T01:08:27;101946.84;;;2.40;100.00
71970;BME280;59838;52.152;5.436;2022-12-07T01:11:05;101943.38;;;2.41;100.00
71970;BME280;59838;52.152;5.436;2022-12-07T01:13:34;101944.16;;;2.41;100.00
71970;BME280;59838;52.152;5.436;2022-12-07T01:16:03;101955.47;;;2.38;100.00
71970;BME280;59838;52.152;5.436;2022-12-07T01:18:32;101938.63;;;2.34;100.00
71970;BME280;59838;52.152;5.436;2022-12-07T01:23:25;101940.06;;;2.26;100.00
71970;BME280;59838;52.152;5.436;2022-12-07T01:25:56;101945.91;;;2.28;100.00
71970;BME280;59838;52.152;5.436;2022-12-07T01:28:23;101946.09;;;2.25;100.00
71970;BME280;59838;52.152;5.436;2022-12-07T01:30:58;101951.25;;;2.25;100.00
71970;BME280;59838;52.152;5.436;2022-12-07T01:33:27;101943.84;;;2.20;100.00
71970;BME280;59838;52.152;5.436;2022-12-07T01:35:53;101946.00;;;2.13;100.00
71970;BME280;59838;52.152;5.436;2022-12-07T01:38:20;101950.50;;;2.10;100.00
71970;BME280;59838;52.152;5.436;2022-12-07T01:40:54;101949.78;;;2.08;100.00
71970;BME280;59838;52.152;5.436;2022-12-07T01:43:20;101947.31;;;2.06;100.00
71970;BME280;59838;52.152;5.436;2022-12-07T01:45:49;101946.59;;;2.04;100.00
71970;BME280;59838;52.152;5.436;2022-12-07T01:48:18;101947.81;;;1.98;100.00
71970;BME280;59838;52.152;5.436;2022-12-07T01:50:48;101953.94;;;1.96;100.00
71970;BME280;59838;52.152;5.436;2022-12-07T01:53:15;101959.06;;;1.96;100.00
71970;BME280;59838;52.152;5.436;2022-12-07T01:55:45;101955.06;;;1.92;100.00
71970;BME280;59838;52.152;5.436;2022-12-07T01:58:14;101952.50;;;1.92;100.00
71970;BME280;59838;52.152;5.436;2022-12-07T02:00:41;101957.00;;;1.88;100.00
71970;BME280;59838;52.152;5.436;2022-12-07T02:03:36;101952.69;;;1.89;100.00
71970;BME280;59838;52.152;5.436;2022-12-07T02:06:00;101955.06;;;1.92;100.00
71970;BME280;59838;52.152;5.436;2022-12-07T02:08:27;101963.38;;;1.95;100.00
71970;BME280;59838;52.152;5.436;2022-12-07T02:10:54;101950.56;;;1.95;100.00
71970;BME280;59838;52.152;5.436;2022-12-07T02:13:24;101945.34;;;1.97;100.00
71970;BME280;59838;52.152;5.436;2022-12-07T02:21:44;101944.53;;;1.96;100.00
71970;BME280;59838;52.152;5.436;2022-12-07T02:24:31;101942.88;;;1.95;100.00
71970;BME280;59838;52.152;5.436;2022-12-07T04:14:45;101915.41;;;2.10;100.00
71970;BME280;59838;52.152;5.436;2022-12-07T04:17:11;101901.59;;;2.13;100.00
71970;BME280;59838;52.152;5.436;2022-12-07T04:19:37;101898.13;;;2.14;100.00
71970;BME280;59838;52.152;5.436;2022-12-07T04:22:04;101897.38;;;2.12;100.00
71970;BME280;59838;52.152;5.436;2022-12-07T04:24:31;101900.03;;;2.10;100.00
71970;BME280;59838;52.152;5.436;2022-12-07T04:26:58;101894.09;;;2.10;100.00
71970;BME280;59838;52.152;5.436;2022-12-07T04:29:25;101899.31;;;2.08;100.00
71970;BME280;59838;52.152;5.436;2022-12-07T04:31:51;101906.41;;;2.05;100.00
71970;BME280;59838;52.152;5.436;2022-12-07T04:34:18;101905.88;;;1.99;100.00
71970;BME280;59838;52.152;5.436;2022-12-07T04:36:46;101900.22;;;1.94;100.00
71970;BME280;59838;52.152;5.436;2022-12-07T04:39:25;101891.81;;;1.92;100.00
71970;BME280;59838;52.152;5.436;2022-12-07T04:41:52;101892.84;;;1.90;100.00
71970;BME280;59838;52.152;5.436;2022-12-07T04:44:19;101902.06;;;1.92;100.00
71970;BME280;59838;52.152;5.436;2022-12-07T04:46:46;101900.44;;;1.91;100.00
71970;BME280;59838;52.152;5.436;2022-12-07T04:49:13;101896.03;;;1.93;100.00
71970;BME280;59838;52.152;5.436;2022-12-07T04:51:41;101906.00;;;1.98;100.00
71970;BME280;59838;52.152;5.436;2022-12-07T04:54:07;101902.81;;;2.07;100.00
71970;BME280;59838;52.152;5.436;2022-12-07T04:56:34;101896.28;;;2.16;100.00
71970;BME280;59838;52.152;5.436;2022-12-07T04:59:02;101891.66;;;2.21;100.00
71970;BME280;59838;52.152;5.436;2022-12-07T05:01:29;101887.22;;;2.23;100.00
71970;BME280;59838;52.152;5.436;2022-12-07T05:03:55;101880.28;;;2.25;100.00
71970;BME280;59838;52.152;5.436;2022-12-07T05:06:22;101883.88;;;2.23;100.00
71970;BME280;59838;52.152;5.436;2022-12-07T05:08:48;101888.56;;;2.16;100.00
71970;BME280;59838;52.152;5.436;2022-12-07T05:11:15;101882.94;;;2.11;100.00
71970;BME280;59838;52.152;5.436;2022-12-07T05:16:38;101884.75;;;1.96;100.00
71970;BME280;59838;52.152;5.436;2022-12-07T05:19:05;101884.31;;;1.89;100.00
71970;BME280;59838;52.152;5.436;2022-12-07T05:21:32;101883.00;;;1.83;100.00
71970;BME280;59838;52.152;5.436;2022-12-07T05:23:59;101885.84;;;1.79;100.00
71970;BME280;59838;52.152;5.436;2022-12-07T05:26:26;101886.13;;;1.74;100.00
71970;BME280;59838;52.152;5.436;2022-12-07T05:28:54;101882.75;;;1.74;100.00
71970;BME280;59838;52.152;5.436;2022-12-07T05:31:21;101891.47;;;1.71;100.00
71970;BME280;59838;52.152;5.436;2022-12-07T05:33:48;101895.06;;;1.69;100.00
71970;BME280;59838;52.152;5.436;2022-12-07T05:36:15;101883.16;;;1.68;100.00
71970;BME280;59838;52.152;5.436;2022-12-07T05:38:41;101888.28;;;1.68;100.00
71970;BME280;59838;52.152;5.436;2022-12-07T05:41:08;101887.47;;;1.67;100.00
71970;BME280;59838;52.152;5.436;2022-12-07T05:43:58;101891.03;;;1.64;100.00
71970;BME280;59838;52.152;5.436;2022-12-07T05:46:24;101894.41;;;1.65;100.00
71970;BME280;59838;52.152;5.436;2022-12-07T05:48:51;101899.34;;;1.68;100.00
71970;BME280;59838;52.152;5.436;2022-12-07T05:51:17;101896.59;;;1.71;100.00
71970;BME280;59838;52.152;5.436;2022-12-07T05:53:45;101891.16;;;1.76;100.00
71970;BME280;59838;52.152;5.436;2022-12-07T05:56:11;101885.84;;;1.79;100.00
71970;BME280;59838;52.152;5.436;2022-12-07T05:58:38;101890.69;;;1.83;100.00
71970;BME280;59838;52.152;5.436;2022-12-07T06:01:23;101893.03;;;1.87;100.00
71970;BME280;59838;52.152;5.436;2022-12-07T06:03:49;101892.00;;;1.89;100.00
71970;BME280;59838;52.152;5.436;2022-12-07T06:06:16;101892.00;;;1.89;100.00
71970;BME280;59838;52.152;5.436;2022-12-07T06:08:42;101888.53;;;1.90;100.00
71970;BME280;59838;52.152;5.436;2022-12-07T06:11:09;101890.91;;;1.93;100.00
71970;BME280;59838;52.152;5.436;2022-12-07T06:13:54;101895.00;;;1.96;100.00
71970;BME280;59838;52.152;5.436;2022-12-07T06:16:20;101885.38;;;1.99;100.00
71970;BME280;59838;52.152;5.436;2022-12-07T06:18:46;101893.88;;;2.00;100.00
71970;BME280;59838;52.152;5.436;2022-12-07T06:21:13;101893.78;;;2.01;100.00
71970;BME280;59838;52.152;5.436;2022-12-07T06:23:40;101891.94;;;2.04;100.00
71970;BME280;59838;52.152;5.436;2022-12-07T06:26:06;101891.75;;;2.07;100.00
71970;BME280;59838;52.152;5.436;2022-12-07T06:28:33;101892.34;;;2.10;100.00
71970;BME280;59838;52.152;5.436;2022-12-07T06:31:03;101886.31;;;2.11;100.00
71970;BME280;59838;52.152;5.436;2022-12-07T06:33:33;101889.50;;;2.15;100.00
71970;BME280;59838;52.152;5.436;2022-12-07T06:36:00;101885.91;;;2.17;100.00
71970;BME280;59838;52.152;5.436;2022-12-07T06:38:26;101877.19;;;2.20;100.00
71970;BME280;59838;52.152;5.436;2022-12-07T06:40:52;101891.44;;;2.24;100.00
71970;BME280;59838;52.152;5.436;2022-12-07T06:43:19;101888.59;;;2.29;100.00
71970;BME280;59838;52.152;5.436;2022-12-07T06:45:45;101891.88;;;2.31;100.00
71970;BME280;59838;52.152;5.436;2022-12-07T06:48:12;101886.72;;;2.31;100.00
71970;BME280;59838;52.152;5.436;2022-12-07T06:50:38;101891.25;;;2.27;100.00
71970;BME280;59838;52.152;5.436;2022-12-07T06:53:05;101883.97;;;2.21;100.00
71970;BME280;59838;52.152;5.436;2022-12-07T06:55:31;101899.94;;;2.12;100.00
71970;BME280;59838;52.152;5.436;2022-12-07T06:57:57;101892.88;;;2.03;100.00
71970;BME280;59838;52.152;5.436;2022-12-07T07:00:24;101896.03;;;1.93;100.00
71970;BME280;59838;52.152;5.436;2022-12-07T07:02:51;101896.63;;;1.84;100.00
71970;BME280;59838;52.152;5.436;2022-12-07T07:05:18;101890.34;;;1.75;100.00
71970;BME280;59838;52.152;5.436;2022-12-07T07:07:44;101894.41;;;1.65;100.00
71970;BME280;59838;52.152;5.436;2022-12-07T07:10:31;101900.03;;;1.57;100.00
71970;BME280;59838;52.152;5.436;2022-12-07T07:12:57;101901.94;;;1.54;100.00
71970;BME280;59838;52.152;5.436;2022-12-07T07:15:24;101900.41;;;1.51;100.00
71970;BME280;59838;52.152;5.436;2022-12-07T07:17:50;101899.56;;;1.51;100.00
71970;BME280;59838;52.152;5.436;2022-12-07T07:20:17;101902.97;;;1.51;100.00
71970;BME280;59838;52.152;5.436;2022-12-07T07:22:43;101900.31;;;1.53;100.00
71970;BME280;59838;52.152;5.436;2022-12-07T07:25:10;101908.81;;;1.53;100.00
71970;BME280;59838;52.152;5.436;2022-12-07T07:27:36;101908.09;;;1.51;100.00
71970;BME280;59838;52.152;5.436;2022-12-07T07:30:05;101906.44;;;1.50;100.00
71970;BME280;59838;52.152;5.436;2022-12-07T07:32:32;101901.22;;;1.52;100.00
71970;BME280;59838;52.152;5.436;2022-12-07T07:34:58;101895.31;;;1.51;100.00
71970;BME280;59838;52.152;5.436;2022-12-07T07:37:25;101897.97;;;1.50;100.00
71970;BME280;59838;52.152;5.436;2022-12-07T07:39:52;101903.06;;;1.50;100.00
71970;BME280;59838;52.152;5.436;2022-12-07T07:42:18;101900.72;;;1.46;100.00
71970;BME280;59838;52.152;5.436;2022-12-07T07:44:45;101908.47;;;1.45;100.00
71970;BME280;59838;52.152;5.436;2022-12-07T07:47:12;101905.00;;;1.46;100.00
71970;BME280;59838;52.152;5.436;2022-12-07T07:49:38;101894.78;;;1.46;100.00
71970;BME280;59838;52.152;5.436;2022-12-07T07:52:12;101898.06;;;1.48;100.00
71970;BME280;59838;52.152;5.436;2022-12-07T07:54:39;101901.31;;;1.50;100.00
71970;BME280;59838;52.152;5.436;2022-12-07T07:57:05;101901.13;;;1.53;100.00
71970;BME280;59838;52.152;5.436;2022-12-07T07:59:31;101901.84;;;1.55;100.00
71970;BME280;59838;52.152;5.436;2022-12-07T08:01:58;101906.69;;;1.60;100.00
71970;BME280;59838;52.152;5.436;2022-12-07T08:04:25;101915.84;;;1.64;100.00
71970;BME280;59838;52.152;5.436;2022-12-07T08:06:52;101914.72;;;1.68;100.00
71970;BME280;59838;52.152;5.436;2022-12-07T08:09:18;101911.94;;;1.71;100.00
71970;BME280;59838;52.152;5.436;2022-12-07T08:11:45;101916.06;;;1.74;100.00
71970;BME280;59838;52.152;5.436;2022-12-07T08:14:11;101915.22;;;1.73;100.00
71970;BME280;59838;52.152;5.436;2022-12-07T08:16:38;101912.66;;;1.73;100.00
71970;BME280;59838;52.152;5.436;2022-12-07T08:19:05;101911.38;;;1.80;100.00
71970;BME280;59838;52.152;5.436;2022-12-07T08:21:31;101920.94;;;1.91;100.00
71970;BME280;59838;52.152;5.436;2022-12-07T08:23:58;101927.91;;;2.02;100.00
71970;BME280;59838;52.152;5.436;2022-12-07T08:26:25;101917.78;;;2.13;100.00
71970;BME280;59838;52.152;5.436;2022-12-07T08:28:52;101920.16;;;2.29;100.00
71970;BME280;59838;52.152;5.436;2022-12-07T08:31:19;101908.91;;;2.45;100.00
71970;BME280;59838;52.152;5.436;2022-12-07T08:33:47;101916.59;;;2.58;100.00
71970;BME280;59838;52.152;5.436;2022-12-07T08:36:14;101909.31;;;2.64;100.00
71970;BME280;59838;52.152;5.436;2022-12-07T08:38:41;101909.50;;;2.74;100.00
71970;BME280;59838;52.152;5.436;2022-12-07T08:41:28;101914.94;;;2.82;100.00
71970;BME280;59838;52.152;5.436;2022-12-07T08:43:54;101906.91;;;2.87;100.00
71970;BME280;59838;52.152;5.436;2022-12-07T08:49:17;101909.69;;;2.97;100.00
71970;BME280;59838;52.152;5.436;2022-12-07T08:51:44;101908.63;;;2.99;100.00
71970;BME280;59838;52.152;5.436;2022-12-07T08:54:14;101907.81;;;2.99;100.00
71970;BME280;59838;52.152;5.436;2022-12-07T08:56:43;101904.19;;;3.01;100.00
71970;BME280;59838;52.152;5.436;2022-12-07T08:59:10;101910.88;;;3.04;100.00
71970;BME280;59838;52.152;5.436;2022-12-07T09:01:39;101904.81;;;3.05;100.00
71970;BME280;59838;52.152;5.436;2022-12-07T09:04:05;101905.53;;;3.07;100.00
71970;BME280;59838;52.152;5.436;2022-12-07T09:06:32;101908.81;;;3.09;100.00
71970;BME280;59838;52.152;5.436;2022-12-07T09:09:00;101912.09;;;3.11;100.00
71970;BME280;59838;52.152;5.436;2022-12-07T09:11:27;101905.91;;;3.14;100.00
71970;BME280;59838;52.152;5.436;2022-12-07T09:13:54;101904.91;;;3.16;100.00
71970;BME280;59838;52.152;5.436;2022-12-07T09:16:21;101907.16;;;3.21;100.00
71970;BME280;59838;52.152;5.436;2022-12-07T09:18:47;101900.84;;;3.25;100.00
71970;BME280;59838;52.152;5.436;2022-12-07T09:21:14;101913.97;;;3.33;100.00
71970;BME280;59838;52.152;5.436;2022-12-07T09:23:43;101907.03;;;3.46;100.00
71970;BME280;59838;52.152;5.436;2022-12-07T09:26:10;101913.53;;;3.63;100.00
71970;BME280;59838;52.152;5.436;2022-12-07T09:28:37;101909.97;;;3.77;100.00
71970;BME280;59838;52.152;5.436;2022-12-07T09:31:05;101911.88;;;3.87;100.00
71970;BME280;59838;52.152;5.436;2022-12-07T09:33:57;101914.13;;;3.91;100.00
71970;BME280;59838;52.152;5.436;2022-12-07T09:36:24;101920.19;;;3.90;100.00
71970;BME280;59838;52.152;5.436;2022-12-07T09:38:51;101914.22;;;3.90;100.00
71970;BME280;59838;52.152;5.436;2022-12-07T09:41:18;101912.56;;;3.89;100.00
71970;BME280;59838;52.152;5.436;2022-12-07T09:43:45;101903.03;;;3.91;100.00
71970;BME280;59838;52.152;5.436;2022-12-07T09:46:14;101909.44;;;3.96;100.00
71970;BME280;59838;52.152;5.436;2022-12-07T09:48:43;101905.63;;;4.02;100.00
71970;BME280;59838;52.152;5.436;2022-12-07T09:51:18;101910.44;;;4.07;100.00
71970;BME280;59838;52.152;5.436;2022-12-07T09:53:51;101911.13;;;4.09;100.00
71970;BME280;59838;52.152;5.436;2022-12-07T09:56:19;101910.19;;;4.10;100.00
71970;BME280;59838;52.152;5.436;2022-12-07T09:58:46;101907.75;;;4.08;100.00
71970;BME280;59838;52.152;5.436;2022-12-07T10:01:16;101907.75;;;4.08;100.00
71970;BME280;59838;52.152;5.436;2022-12-07T10:03:52;101908.56;;;4.09;100.00
71970;BME280;59838;52.152;5.436;2022-12-07T10:06:19;101898.38;;;4.07;100.00
71970;BME280;59838;52.152;5.436;2022-12-07T10:08:46;101895.13;;;4.05;100.00
71970;BME280;59838;52.152;5.436;2022-12-07T10:11:13;101897.19;;;4.00;100.00
71970;BME280;59838;52.152;5.436;2022-12-07T10:13:46;101894.97;;;3.95;100.00
71970;BME280;59838;52.152;5.436;2022-12-07T10:18:51;101888.69;;;4.11;100.00
71970;BME280;59838;52.152;5.436;2022-12-07T10:21:19;101884.63;;;4.31;100.00
71970;BME280;59838;52.152;5.436;2022-12-07T10:29:17;101873.28;;;4.67;100.00
71970;BME280;59838;52.152;5.436;2022-12-07T10:31:45;101879.75;;;4.62;100.00
71970;BME280;59838;52.152;5.436;2022-12-07T10:34:44;101877.88;;;4.52;100.00
71970;BME280;59838;52.152;5.436;2022-12-07T10:37:19;101876.78;;;4.44;100.00
71970;BME280;59838;52.152;5.436;2022-12-07T10:39:54;101874.72;;;4.37;100.00
71970;BME280;59838;52.152;5.436;2022-12-07T10:47:39;101865.22;;;4.49;100.00
71970;BME280;59838;52.152;5.436;2022-12-07T10:53:26;101854.81;;;4.73;100.00
71970;BME280;59838;52.152;5.436;2022-12-07T10:59:11;101845.53;;;4.82;99.14
71970;BME280;59838;52.152;5.436;2022-12-07T11:05:03;101853.19;;;5.16;98.87
71970;BME280;59838;52.152;5.436;2022-12-07T11:08:24;101837.97;;;5.45;98.14
71970;BME280;59838;52.152;5.436;2022-12-07T11:11:12;101842.81;;;5.60;97.58
71970;BME280;59838;52.152;5.436;2022-12-07T11:14:10;101841.06;;;5.60;96.42
71970;BME280;59838;52.152;5.436;2022-12-07T11:19:23;101834.03;;;5.62;95.32
71970;BME280;59838;52.152;5.436;2022-12-07T11:22:18;101836.66;;;5.51;94.61
71970;BME280;59838;52.152;5.436;2022-12-07T11:24:57;101829.91;;;5.39;94.05
71970;BME280;59838;52.152;5.436;2022-12-07T11:33:13;101824.88;;;5.05;94.84
71970;BME280;59838;52.152;5.436;2022-12-07T11:38:54;101819.72;;;5.05;96.00
71970;BME280;59838;52.152;5.436;2022-12-07T11:41:28;101813.75;;;5.16;96.28
71970;BME280;59838;52.152;5.436;2022-12-07T11:47:02;101812.31;;;5.44;96.53
71970;BME280;59838;52.152;5.436;2022-12-07T11:49:53;101809.00;;;5.53;96.10
71970;BME280;59838;52.152;5.436;2022-12-07T11:52:27;101799.81;;;5.60;95.40
71970;BME280;59838;52.152;5.436;2022-12-07T11:54:54;101800.16;;;5.67;94.83
71970;BME280;59838;52.152;5.436;2022-12-07T11:57:44;101803.72;;;5.76;94.31
71970;BME280;59838;52.152;5.436;2022-12-07T12:00:14;101797.22;;;5.81;94.00
71970;BME280;59838;52.152;5.436;2022-12-07T12:03:12;101797.69;;;5.86;93.49
71970;BME280;59838;52.152;5.436;2022-12-07T12:05:41;101786.84;;;5.93;93.62
71970;BME280;59838;52.152;5.436;2022-12-07T12:08:21;101785.22;;;5.92;92.80
71970;BME280;59838;52.152;5.436;2022-12-07T12:17:19;101773.50;;;5.88;91.65
71970;BME280;59838;52.152;5.436;2022-12-07T12:22:45;101781.41;;;5.96;91.18
71970;BME280;59838;52.152;5.436;2022-12-07T12:25:23;101768.16;;;6.00;91.04
71970;BME280;59838;52.152;5.436;2022-12-07T12:27:52;101774.84;;;6.03;91.24
71970;BME280;59838;52.152;5.436;2022-12-07T12:30:39;101770.25;;;6.07;91.62
71970;BME280;59838;52.152;5.436;2022-12-07T12:33:17;101767.09;;;6.03;90.87
71970;BME280;59838;52.152;5.436;2022-12-07T12:35:46;101759.25;;;6.04;90.64
71970;BME280;59838;52.152;5.436;2022-12-07T12:38:25;101745.00;;;6.10;90.59
71970;BME280;59838;52.152;5.436;2022-12-07T12:40:54;101754.16;;;6.24;90.72
71970;BME280;59838;52.152;5.436;2022-12-07T12:43:41;101753.78;;;6.38;90.53
71970;BME280;59838;52.152;5.436;2022-12-07T12:54:31;101744.16;;;6.50;87.64
71970;BME280;59838;52.152;5.436;2022-12-07T12:59:57;101741.53;;;6.31;88.83
71970;BME280;59838;52.152;5.436;2022-12-07T13:15:41;101734.88;;;5.66;89.44
71970;BME280;59838;52.152;5.436;2022-12-07T13:29:18;101714.44;;;5.32;89.99
71970;BME280;59838;52.152;5.436;2022-12-07T13:31:51;101713.09;;;5.28;90.25
71970;BME280;59838;52.152;5.436;2022-12-07T13:34:34;101704.34;;;5.20;90.95
71970;BME280;59838;52.152;5.436;2022-12-07T13:37:27;101708.25;;;5.14;90.97
71970;BME280;59838;52.152;5.436;2022-12-07T13:40:17;101705.22;;;5.09;91.08
71970;BME280;59838;52.152;5.436;2022-12-07T13:42:44;101710.50;;;5.07;91.25
71970;BME280;59838;52.152;5.436;2022-12-07T13:45:22;101703.59;;;5.08;91.25
71970;BME280;59838;52.152;5.436;2022-12-07T13:48:15;101692.59;;;5.06;91.41
71970;BME280;59838;52.152;5.436;2022-12-07T13:50:53;101687.56;;;5.04;91.50
71970;BME280;59838;52.152;5.436;2022-12-07T13:53:19;101692.84;;;5.03;91.85
71970;BME280;59838;52.152;5.436;2022-12-07T13:55:47;101697.06;;;5.04;92.02
71970;BME280;59838;52.152;5.436;2022-12-07T13:58:19;101693.53;;;5.05;92.35
71970;BME280;59838;52.152;5.436;2022-12-07T14:00:46;101696.09;;;5.05;92.32
71970;BME280;59838;52.152;5.436;2022-12-07T14:05:41;101682.31;;;5.06;92.70
71970;BME280;59838;52.152;5.436;2022-12-07T14:10:53;101680.28;;;5.09;92.10
71970;BME280;59838;52.152;5.436;2022-12-07T14:13:35;101681.56;;;5.15;92.33
71970;BME280;59838;52.152;5.436;2022-12-07T14:16:04;101676.13;;;5.18;91.96
71970;BME280;59838;52.152;5.436;2022-12-07T14:18:40;101675.06;;;5.21;91.94
71970;BME280;59838;52.152;5.436;2022-12-07T14:23:37;101663.97;;;5.20;91.91
71970;BME280;59838;52.152;5.436;2022-12-07T14:26:11;101661.50;;;5.19;91.62
71970;BME280;59838;52.152;5.436;2022-12-07T14:28:40;101661.63;;;5.17;91.72
71970;BME280;59838;52.152;5.436;2022-12-07T14:31:12;101659.31;;;5.14;91.75
71970;BME280;59838;52.152;5.436;2022-12-07T14:33:49;101660.22;;;5.13;91.88
71970;BME280;59838;52.152;5.436;2022-12-07T14:36:15;101659.56;;;5.11;92.06
71970;BME280;59838;52.152;5.436;2022-12-07T14:38:42;101658.75;;;5.10;92.28
71970;BME280;59838;52.152;5.436;2022-12-07T14:41:14;101652.06;;;5.08;92.49
71970;BME280;59838;52.152;5.436;2022-12-07T14:44:09;101655.84;;;5.04;92.86
71970;BME280;59838;52.152;5.436;2022-12-07T14:46:57;101645.09;;;4.99;93.31
71970;BME280;59838;52.152;5.436;2022-12-07T14:49:43;101640.59;;;4.91;93.16
71970;BME280;59838;52.152;5.436;2022-12-07T14:52:21;101646.13;;;4.86;93.33
71970;BME280;59838;52.152;5.436;2022-12-07T14:55:14;101643.09;;;4.81;94.11
71970;BME280;59838;52.152;5.436;2022-12-07T14:57:43;101656.09;;;4.80;94.14
71970;BME280;59838;52.152;5.436;2022-12-07T15:00:13;101657.97;;;4.78;94.34
71970;BME280;59838;52.152;5.436;2022-12-07T15:02:40;101650.34;;;4.76;94.57
71970;BME280;59838;52.152;5.436;2022-12-07T15:05:07;101652.94;;;4.76;94.83
71970;BME280;59838;52.152;5.436;2022-12-07T15:07:41;101655.50;;;4.76;94.94
71970;BME280;59838;52.152;5.436;2022-12-07T15:10:17;101656.34;;;4.76;94.78
71970;BME280;59838;52.152;5.436;2022-12-07T15:12:49;101667.56;;;4.75;94.65
71970;BME280;59838;52.152;5.436;2022-12-07T15:15:16;101659.84;;;4.75;94.25
71970;BME280;59838;52.152;5.436;2022-12-07T15:17:43;101654.81;;;4.74;93.98
71970;BME280;59838;52.152;5.436;2022-12-07T15:20:14;101646.53;;;4.70;94.25
71970;BME280;59838;52.152;5.436;2022-12-07T15:22:43;101632.38;;;4.65;94.70
71970;BME280;59838;52.152;5.436;2022-12-07T15:25:13;101644.69;;;4.61;95.58
71970;BME280;59838;52.152;5.436;2022-12-07T15:27:39;101642.59;;;4.55;95.79
71970;BME280;59838;52.152;5.436;2022-12-07T15:30:06;101638.91;;;4.48;96.20
71970;BME280;59838;52.152;5.436;2022-12-07T15:32:33;101641.72;;;4.45;96.71
71970;BME280;59838;52.152;5.436;2022-12-07T15:34:59;101645.72;;;4.37;96.90
71970;BME280;59838;52.152;5.436;2022-12-07T15:37:26;101636.59;;;4.33;96.98
71970;BME280;59838;52.152;5.436;2022-12-07T15:39:53;101636.03;;;4.30;97.54
71970;BME280;59838;52.152;5.436;2022-12-07T15:42:19;101636.28;;;4.27;97.83
71970;BME280;59838;52.152;5.436;2022-12-07T15:44:46;101633.03;;;4.25;97.97
71970;BME280;59838;52.152;5.436;2022-12-07T15:47:34;101627.28;;;4.21;98.63
71970;BME280;59838;52.152;5.436;2022-12-07T15:50:22;101615.72;;;4.15;98.50
71970;BME280;59838;52.152;5.436;2022-12-07T15:52:49;101618.53;;;4.12;98.96
71970;BME280;59838;52.152;5.436;2022-12-07T15:55:15;101615.41;;;4.09;99.17
71970;BME280;59838;52.152;5.436;2022-12-07T15:57:42;101608.97;;;4.03;99.39
71970;BME280;59838;52.152;5.436;2022-12-07T16:00:08;101618.00;;;3.97;99.28
71970;BME280;59838;52.152;5.436;2022-12-07T16:02:36;101614.25;;;3.90;99.48
71970;BME280;59838;52.152;5.436;2022-12-07T16:05:05;101615.44;;;3.86;99.77
71970;BME280;59838;52.152;5.436;2022-12-07T16:07:32;101602.81;;;3.83;99.60
71970;BME280;59838;52.152;5.436;2022-12-07T16:09:58;101599.69;;;3.79;99.69
71970;BME280;59838;52.152;5.436;2022-12-07T16:12:24;101607.50;;;3.78;100.00
71970;BME280;59838;52.152;5.436;2022-12-07T16:14:51;101602.47;;;3.76;100.00
71970;BME280;59838;52.152;5.436;2022-12-07T16:17:17;101604.25;;;3.76;100.00
71970;BME280;59838;52.152;5.436;2022-12-07T16:19:44;101594.88;;;3.75;100.00
71970;BME280;59838;52.152;5.436;2022-12-07T16:22:10;101589.75;;;3.75;100.00
71970;BME280;59838;52.152;5.436;2022-12-07T16:24:36;101591.75;;;3.71;100.00
71970;BME280;59838;52.152;5.436;2022-12-07T16:27:03;101592.09;;;3.66;100.00
71970;BME280;59838;52.152;5.436;2022-12-07T16:29:29;101596.66;;;3.63;100.00
71970;BME280;59838;52.152;5.436;2022-12-07T16:31:56;101589.88;;;3.62;100.00
71970;BME280;59838;52.152;5.436;2022-12-07T16:34:22;101585.91;;;3.58;100.00
71970;BME280;59838;52.152;5.436;2022-12-07T16:36:48;101583.44;;;3.56;100.00
71970;BME280;59838;52.152;5.436;2022-12-07T16:39:32;101581.00;;;3.55;100.00
71970;BME280;59838;52.152;5.436;2022-12-07T16:41:59;101576.91;;;3.52;100.00